Time;durP1;ratioP1;P1;durP2;ratioP2;P2;SDS_P1;SDS_P2;PMS_P1;PMS_P2;Temp;Humidity;BMP_temperature;BMP_pressure;BME280_temperature;BME280_humidity;BME280_pressure;Samples;Min_cycle;Max_cycle;Signal;HPM_P1;HPM_P2
2020/12/26 00:01:33;;;;;;;4.77;1.73;;;;;;;-0.08;100.00;101355.41;4989279;28;20509;-72
2020/12/26 00:03:59;;;;;;;5.13;2.60;;;;;;;-0.07;100.00;101345.91;5007144;28;20033;-73
2020/12/26 00:06:25;;;;;;;2.70;1.90;;;;;;;-0.09;100.00;101351.03;5022042;28;20502;-72
2020/12/26 00:08:53;;;;;;;4.83;2.17;;;;;;;-0.10;100.00;101330.19;5003202;28;20038;-72
2020/12/26 00:11:20;;;;;;;5.27;2.07;;;;;;;-0.12;100.00;101322.38;4987879;28;20038;-75
2020/12/26 00:13:47;;;;;;;7.13;2.50;;;;;;;-0.15;100.00;101322.28;5007226;28;20084;-70
2020/12/26 00:16:13;;;;;;;3.67;1.80;;;;;;;-0.15;100.00;101326.59;5003593;28;20108;-71
2020/12/26 00:18:40;;;;;;;4.37;2.10;;;;;;;-0.19;100.00;101327.31;5020363;28;20076;-75
2020/12/26 00:21:12;;;;;;;5.30;2.20;;;;;;;-0.19;100.00;101330.78;5005200;28;20045;-72
2020/12/26 00:23:38;;;;;;;5.60;2.93;;;;;;;-0.20;100.00;101330.72;5005558;28;20040;-73
2020/12/26 00:26:05;;;;;;;5.57;2.47;;;;;;;-0.23;100.00;101328.94;5002523;28;20041;-71
2020/12/26 00:28:31;;;;;;;5.93;2.07;;;;;;;-0.22;100.00;101335.00;5003445;28;20064;-74
2020/12/26 00:30:58;;;;;;;4.13;2.23;;;;;;;-0.22;100.00;101335.88;5001361;28;20070;-70
2020/12/26 00:33:24;;;;;;;3.53;1.77;;;;;;;-0.24;100.00;101327.16;5003418;28;20080;-72
2020/12/26 00:35:50;;;;;;;4.80;2.03;;;;;;;-0.21;100.00;101329.84;5004752;28;20041;-71
2020/12/26 00:38:16;;;;;;;4.93;2.10;;;;;;;-0.23;100.00;101330.63;5003569;28;20514;-71
2020/12/26 00:40:43;;;;;;;10.73;2.40;;;;;;;-0.23;100.00;101328.03;5006566;28;20092;-71
2020/12/26 00:43:09;;;;;;;3.57;2.20;;;;;;;-0.21;100.00;101324.66;5005933;28;20034;-73
2020/12/26 00:45:36;;;;;;;4.47;2.57;;;;;;;-0.25;100.00;101325.41;5005403;28;20052;-75
2020/12/26 00:48:02;;;;;;;5.43;2.30;;;;;;;-0.26;100.00;101323.59;5007779;28;20088;-76
2020/12/26 00:50:28;;;;;;;3.53;2.63;;;;;;;-0.29;100.00;101329.59;5005689;28;20083;-73
2020/12/26 00:52:54;;;;;;;3.43;2.10;;;;;;;-0.29;100.00;101328.72;5005340;28;20065;-73
2020/12/26 00:55:20;;;;;;;5.13;2.07;;;;;;;-0.28;100.00;101338.25;5005783;28;20037;-73
2020/12/26 00:57:46;;;;;;;5.63;1.90;;;;;;;-0.30;100.00;101335.63;5004243;28;20077;-72
2020/12/26 01:00:12;;;;;;;3.47;1.63;;;;;;;-0.28;100.00;101327.88;5006075;28;20034;-75
2020/12/26 01:02:39;;;;;;;3.97;2.10;;;;;;;-0.26;100.00;101317.53;5005280;28;20038;-74
2020/12/26 01:05:05;;;;;;;4.10;2.50;;;;;;;-0.31;100.00;101318.28;4988342;28;20092;-75
2020/12/26 01:07:31;;;;;;;4.07;1.93;;;;;;;-0.26;100.00;101318.41;5003064;28;20058;-73
2020/12/26 01:09:57;;;;;;;5.43;2.53;;;;;;;-0.28;100.00;101310.56;5004014;28;20569;-72
2020/12/26 01:12:23;;;;;;;4.30;2.10;;;;;;;-0.30;100.00;101316.56;5004021;28;20403;-73
2020/12/26 01:14:49;;;;;;;4.20;2.00;;;;;;;-0.34;100.00;101319.88;5006090;28;20049;-73
2020/12/26 01:17:16;;;;;;;3.27;2.10;;;;;;;-0.34;100.00;101330.25;5004895;28;20073;-72
2020/12/26 01:19:55;;;;;;;4.50;1.77;;;;;;;-0.38;100.00;101329.28;5003760;28;20038;-76
2020/12/26 01:22:22;;;;;;;4.53;2.10;;;;;;;-0.37;100.00;101340.53;5004315;28;20046;-72
2020/12/26 01:24:48;;;;;;;4.73;2.13;;;;;;;-0.38;100.00;101333.59;4986729;28;20042;-74
2020/12/26 01:27:14;;;;;;;2.90;1.67;;;;;;;-0.40;100.00;101338.72;5005775;28;20518;-75
2020/12/26 01:29:45;;;;;;;5.33;1.80;;;;;;;-0.41;100.00;101343.88;5002829;28;20452;-74
2020/12/26 01:32:11;;;;;;;6.27;2.60;;;;;;;-0.41;100.00;101351.66;5004222;28;20080;-72
2020/12/26 01:34:38;;;;;;;3.60;1.87;;;;;;;-0.42;100.00;101343.00;5003531;28;20034;-73
2020/12/26 01:37:04;;;;;;;4.30;2.60;;;;;;;-0.40;100.00;101353.44;4986743;28;20038;-73
2020/12/26 01:39:31;;;;;;;8.90;2.10;;;;;;;-0.38;100.00;101350.03;4987840;28;20422;-75
2020/12/26 01:41:57;;;;;;;6.50;2.20;;;;;;;-0.38;100.00;101356.94;5004539;28;20120;-74
2020/12/26 01:44:23;;;;;;;7.20;1.97;;;;;;;-0.36;100.00;101357.88;5003675;28;20046;-75
2020/12/26 01:46:51;;;;;;;3.40;1.90;;;;;;;-0.40;100.00;101362.09;5005952;28;20380;-73
2020/12/26 01:49:19;;;;;;;3.47;1.83;;;;;;;-0.40;100.00;101367.28;5004315;28;20033;-72
2020/12/26 01:51:46;;;;;;;4.57;2.43;;;;;;;-0.41;100.00;101354.25;5004028;28;20049;-72
2020/12/26 01:54:12;;;;;;;5.03;2.33;;;;;;;-0.41;100.00;101362.03;4970997;28;20042;-72
2020/12/26 01:56:39;;;;;;;5.30;2.00;;;;;;;-0.43;100.00;101361.97;5003488;28;20467;-73
2020/12/26 01:59:05;;;;;;;2.90;1.73;;;;;;;-0.38;100.00;101368.22;5004664;28;20050;-75
2020/12/26 02:01:39;;;;;;;3.10;2.00;;;;;;;-0.42;100.00;101365.44;5006938;28;20045;-74
2020/12/26 02:04:08;;;;;;;4.18;2.20;;;;;;;-0.41;100.00;101364.66;5005156;28;20566;-72
2020/12/26 02:06:53;;;;;;;4.10;2.40;;;;;;;-0.41;100.00;101354.25;5006557;28;20127;-72
2020/12/26 02:09:20;;;;;;;5.03;2.70;;;;;;;-0.38;100.00;101364.75;5005651;28;20041;-73
2020/12/26 02:11:46;;;;;;;3.47;1.97;;;;;;;-0.40;100.00;101366.41;5006732;28;20054;-72
2020/12/26 02:14:12;;;;;;;2.60;1.93;;;;;;;-0.41;100.00;101359.44;5006550;28;20062;-73
2020/12/26 02:16:49;;;;;;;5.10;2.77;;;;;;;-0.41;100.00;101367.25;5006540;28;20078;-72
2020/12/26 02:19:17;;;;;;;3.10;1.83;;;;;;;-0.44;100.00;101359.31;5004861;28;20125;-72
2020/12/26 02:21:43;;;;;;;6.27;2.20;;;;;;;-0.43;100.00;101361.97;5005653;28;20042;-72
2020/12/26 02:24:10;;;;;;;3.17;1.87;;;;;;;-0.46;100.00;101351.50;5006217;28;20038;-72
2020/12/26 02:26:38;;;;;;;6.37;2.80;;;;;;;-0.46;100.00;101350.59;5007210;28;20060;-73
2020/12/26 02:29:05;;;;;;;5.10;2.60;;;;;;;-0.46;100.00;101361.88;5006370;28;20033;-72
2020/12/26 02:31:35;;;;;;;7.53;3.07;;;;;;;-0.44;100.00;101359.31;4989714;28;20418;-73
2020/12/26 02:34:02;;;;;;;3.60;2.23;;;;;;;-0.48;100.00;101357.47;5003320;28;20076;-75
2020/12/26 02:36:28;;;;;;;4.47;2.23;;;;;;;-0.47;100.00;101354.03;5003560;28;20464;-73
2020/12/26 02:38:54;;;;;;;3.97;2.50;;;;;;;-0.48;100.00;101352.28;4989176;28;20096;-72
2020/12/26 02:41:20;;;;;;;3.87;2.30;;;;;;;-0.48;100.00;101360.06;5006209;28;20439;-72
2020/12/26 02:43:46;;;;;;;7.23;2.43;;;;;;;-0.48;100.00;101358.34;4986853;28;20042;-73
2020/12/26 02:46:13;;;;;;;3.40;2.20;;;;;;;-0.49;100.00;101353.09;5007006;28;20508;-74
2020/12/26 02:48:39;;;;;;;4.23;2.30;;;;;;;-0.49;100.00;101353.09;5005924;28;20045;-73
2020/12/26 02:51:06;;;;;;;4.77;2.30;;;;;;;-0.49;100.00;101354.00;5007307;28;20103;-72
2020/12/26 02:53:32;;;;;;;6.17;2.60;;;;;;;-0.50;100.00;101367.81;5006940;28;20128;-75
2020/12/26 02:55:58;;;;;;;4.73;2.50;;;;;;;-0.52;100.00;101361.66;4989475;28;20049;-76
2020/12/26 02:58:24;;;;;;;4.37;2.40;;;;;;;-0.53;100.00;101348.63;4987803;28;20565;-77
2020/12/26 03:00:50;;;;;;;6.33;2.50;;;;;;;-0.56;100.00;101349.41;5006765;28;20415;-75
2020/12/26 03:03:16;;;;;;;3.93;2.50;;;;;;;-0.55;100.00;101339.91;4987547;28;20121;-76
2020/12/26 03:05:43;;;;;;;3.20;2.37;;;;;;;-0.55;100.00;101355.47;5005971;28;20044;-73
2020/12/26 03:08:09;;;;;;;5.73;2.53;;;;;;;-0.54;100.00;101349.44;4989484;28;20164;-74
2020/12/26 03:10:36;;;;;;;4.73;2.47;;;;;;;-0.49;100.00;101353.09;5005368;28;20049;-75
2020/12/26 03:13:02;;;;;;;4.57;2.40;;;;;;;-0.55;100.00;101353.75;4989759;28;20100;-76
2020/12/26 03:15:29;;;;;;;6.10;2.67;;;;;;;-0.57;100.00;101355.44;4990685;28;20046;-77
2020/12/26 03:17:55;;;;;;;8.07;4.47;;;;;;;-0.57;100.00;101358.03;5005801;28;20491;-77
2020/12/26 03:20:21;;;;;;;3.97;2.20;;;;;;;-0.60;100.00;101363.09;4989567;28;20041;-73
2020/12/26 03:22:47;;;;;;;5.70;3.53;;;;;;;-0.63;100.00;101369.06;5005434;28;20038;-74
2020/12/26 03:25:14;;;;;;;3.97;2.23;;;;;;;-0.63;100.00;101369.06;5006635;28;20160;-72
2020/12/26 03:27:40;;;;;;;3.70;2.60;;;;;;;-0.59;100.00;101364.84;4989511;28;20588;-73
2020/12/26 03:30:06;;;;;;;5.13;2.07;;;;;;;-0.61;100.00;101375.19;4987865;28;20046;-73
2020/12/26 03:32:33;;;;;;;5.17;2.60;;;;;;;-0.62;100.00;101381.19;4999149;28;20041;-74
2020/12/26 03:34:59;;;;;;;8.70;2.50;;;;;;;-0.62;100.00;101375.13;4986686;28;20483;-72
2020/12/26 03:37:25;;;;;;;4.23;2.67;;;;;;;-0.63;100.00;101384.63;5005620;28;20514;-73
2020/12/26 03:39:52;;;;;;;5.57;2.37;;;;;;;-0.65;100.00;101388.88;5005663;28;20045;-72
2020/12/26 03:42:18;;;;;;;5.00;2.53;;;;;;;-0.67;100.00;101385.34;4988856;28;20034;-72
2020/12/26 03:44:44;;;;;;;9.67;3.37;;;;;;;-0.68;100.00;101388.75;5005240;28;20050;-75
2020/12/26 03:47:12;;;;;;;3.73;2.37;;;;;;;-0.69;100.00;101389.59;5003998;28;20034;-76
2020/12/26 03:49:38;;;;;;;4.97;2.60;;;;;;;-0.62;100.00;101386.38;5008538;28;20049;-72
2020/12/26 03:52:04;;;;;;;5.40;2.40;;;;;;;-0.66;100.00;101387.13;5006092;28;20034;-72
2020/12/26 03:54:31;;;;;;;6.10;2.87;;;;;;;-0.68;100.00;101387.88;4989925;28;20054;-75
2020/12/26 03:56:57;;;;;;;5.37;2.70;;;;;;;-0.69;100.00;101389.59;5004930;28;20096;-76
2020/12/26 03:59:24;;;;;;;5.57;2.80;;;;;;;-0.70;100.00;101392.13;5002886;28;20677;-75
2020/12/26 04:01:50;;;;;;;4.77;3.03;;;;;;;-0.69;100.00;101396.47;5004296;28;20038;-72
2020/12/26 04:04:16;;;;;;;5.13;2.73;;;;;;;-0.71;100.00;101403.34;5007141;28;20487;-73
2020/12/26 04:06:43;;;;;;;3.47;2.30;;;;;;;-0.73;100.00;101403.28;5007796;28;20038;-74
2020/12/26 04:09:10;;;;;;;6.30;3.03;;;;;;;-0.69;100.00;101405.16;5004605;28;20095;-74
2020/12/26 04:11:36;;;;;;;4.43;2.47;;;;;;;-0.73;100.00;101402.41;5006098;28;20038;-73
2020/12/26 04:14:03;;;;;;;9.43;2.57;;;;;;;-0.76;100.00;101405.75;5005457;28;20092;-72
2020/12/26 04:16:30;;;;;;;3.50;2.20;;;;;;;-0.74;100.00;101401.53;4987941;28;20080;-72
2020/12/26 04:18:56;;;;;;;3.97;2.17;;;;;;;-0.75;100.00;101404.06;4987995;28;20522;-74
2020/12/26 04:21:23;;;;;;;5.30;2.67;;;;;;;-0.74;100.00;101405.84;5005537;28;20068;-76
2020/12/26 04:23:50;;;;;;;6.17;2.30;;;;;;;-0.73;100.00;101400.69;5005057;28;20045;-72
2020/12/26 04:26:16;;;;;;;3.53;2.17;;;;;;;-0.76;100.00;101405.75;5003416;28;20069;-73
2020/12/26 04:28:42;;;;;;;3.63;2.00;;;;;;;-0.77;100.00;101403.97;5004115;28;20046;-74
2020/12/26 04:31:09;;;;;;;5.00;2.90;;;;;;;-0.78;100.00;101393.56;4988498;28;20073;-72
2020/12/26 04:33:36;;;;;;;4.23;2.47;;;;;;;-0.76;100.00;101397.97;5003536;28;20040;-73
2020/12/26 04:36:03;;;;;;;6.80;2.80;;;;;;;-0.79;100.00;101397.88;5004083;28;20474;-73
2020/12/26 04:38:29;;;;;;;3.10;2.43;;;;;;;-0.80;100.00;101395.22;5004304;28;20041;-73
2020/12/26 04:40:57;;;;;;;4.67;2.40;;;;;;;-0.82;100.00;101395.16;5005334;28;20061;-73
2020/12/26 04:43:23;;;;;;;3.93;2.50;;;;;;;-0.82;100.00;101397.75;5004663;28;20138;-73
2020/12/26 04:45:52;;;;;;;4.23;2.27;;;;;;;-0.79;100.00;101394.38;5005250;28;20446;-72
2020/12/26 04:48:22;;;;;;;4.13;2.33;;;;;;;-0.83;100.00;101393.41;5019171;28;20117;-72
2020/12/26 04:50:49;;;;;;;4.13;2.50;;;;;;;-0.84;100.00;101389.03;5006187;28;20042;-72
2020/12/26 04:53:18;;;;;;;4.53;2.93;;;;;;;-0.86;100.00;101382.88;4985941;28;20100;-74
2020/12/26 04:55:49;;;;;;;6.10;2.53;;;;;;;-0.86;100.00;101383.78;4987686;28;20761;-73
2020/12/26 04:58:16;;;;;;;5.57;2.23;;;;;;;-0.88;100.00;101390.63;5005427;28;20502;-73
2020/12/26 05:00:43;;;;;;;4.00;2.10;;;;;;;-0.83;100.00;101383.03;5005963;28;20038;-77
2020/12/26 05:03:11;;;;;;;4.63;2.70;;;;;;;-0.83;100.00;101376.97;5005950;28;20030;-72
2020/12/26 05:05:39;;;;;;;6.00;2.83;;;;;;;-0.87;100.00;101375.94;5003157;28;20041;-72
2020/12/26 05:08:06;;;;;;;3.77;2.50;;;;;;;-0.89;100.00;101368.09;5003829;28;20057;-73
2020/12/26 05:10:33;;;;;;;4.83;2.80;;;;;;;-0.89;100.00;101370.69;4986447;28;20073;-74
2020/12/26 05:13:00;;;;;;;4.10;2.23;;;;;;;-0.87;100.00;101368.16;5004391;28;20033;-74
2020/12/26 05:15:26;;;;;;;6.07;2.60;;;;;;;-0.85;100.00;101371.69;5002797;28;20042;-72
2020/12/26 05:17:52;;;;;;;3.43;2.33;;;;;;;-0.88;100.00;101369.00;5004723;28;20104;-72
2020/12/26 05:20:24;;;;;;;5.10;2.63;;;;;;;-0.88;100.00;101363.81;5001645;28;20037;-74
2020/12/26 05:23:14;;;;;;;4.03;2.50;;;;;;;-0.90;100.00;101366.34;5003856;28;20030;-72
2020/12/26 05:25:46;;;;;;;4.20;2.37;;;;;;;-0.92;100.00;101370.59;4990770;28;20034;-73
2020/12/26 05:28:20;;;;;;;5.30;2.30;;;;;;;-0.87;100.00;101365.56;5003601;28;20038;-74
2020/12/26 05:30:48;;;;;;;4.20;2.40;;;;;;;-0.90;100.00;101366.34;5004777;28;20038;-72
2020/12/26 05:33:15;;;;;;;4.43;2.30;;;;;;;-0.90;100.00;101368.06;4988474;28;20034;-74
2020/12/26 05:35:47;;;;;;;3.07;2.13;;;;;;;-0.92;100.00;101368.00;5007780;28;20038;-74
2020/12/26 05:38:24;;;;;;;4.27;2.63;;;;;;;-0.93;100.00;101370.50;4991756;28;20046;-72
2020/12/26 05:41:00;;;;;;;4.50;2.47;;;;;;;-0.93;100.00;101370.50;5009477;28;20045;-73
2020/12/26 05:43:29;;;;;;;3.67;2.00;;;;;;;-0.88;100.00;101371.59;5006469;28;20045;-72
2020/12/26 05:45:55;;;;;;;6.20;2.63;;;;;;;-0.90;100.00;101368.94;5007340;28;20504;-73
2020/12/26 05:48:24;;;;;;;4.93;2.40;;;;;;;-0.91;100.00;101371.47;5006702;28;20141;-71
2020/12/26 05:50:54;;;;;;;5.77;2.37;;;;;;;-0.93;100.00;101368.81;5004230;28;20111;-72
2020/12/26 05:53:24;;;;;;;3.90;2.33;;;;;;;-0.93;100.00;101368.81;5005665;28;20038;-72
2020/12/26 05:55:50;;;;;;;4.07;3.13;;;;;;;-0.94;100.00;101372.22;4992678;28;20060;-70
2020/12/26 05:58:21;;;;;;;5.30;2.40;;;;;;;-0.94;100.00;101368.75;4989727;28;20092;-72
2020/12/26 06:00:47;;;;;;;4.97;2.03;;;;;;;-0.97;100.00;101366.94;5008674;28;20756;-72
2020/12/26 06:03:30;;;;;;;6.10;2.80;;;;;;;-0.99;100.00;101367.72;5006807;28;20473;-72
2020/12/26 06:06:00;;;;;;;4.07;2.40;;;;;;;-0.99;100.00;101368.59;5006939;28;20037;-72
2020/12/26 06:08:28;;;;;;;4.33;1.90;;;;;;;-1.01;100.00;101377.13;4989295;28;20128;-72
2020/12/26 06:10:57;;;;;;;4.53;2.30;;;;;;;-1.05;100.00;101377.84;5005912;28;20046;-72
2020/12/26 06:13:26;;;;;;;5.43;4.10;;;;;;;-1.06;100.00;101376.09;4989499;28;20080;-72
2020/12/26 06:16:11;;;;;;;3.60;2.57;;;;;;;-1.06;100.00;101389.06;5006026;28;20034;-72
2020/12/26 06:18:45;;;;;;;5.47;2.37;;;;;;;-1.09;100.00;101386.31;5004237;28;20049;-72
2020/12/26 06:21:11;;;;;;;2.85;1.92;;;;;;;-1.09;100.00;101397.59;5007005;28;20096;-72
2020/12/26 06:23:38;;;;;;;2.83;1.90;;;;;;;-1.08;100.00;101393.31;5007146;28;20474;-76
2020/12/26 06:26:06;;;;;;;5.43;2.60;;;;;;;-1.09;100.00;101402.78;5008591;28;20041;-72
2020/12/26 06:28:34;;;;;;;4.30;2.10;;;;;;;-1.11;100.00;101388.88;5006056;28;20121;-75
2020/12/26 06:31:04;;;;;;;4.17;2.97;;;;;;;-1.13;100.00;101396.59;5005786;28;20493;-77
2020/12/26 06:33:38;;;;;;;6.13;2.93;;;;;;;-1.15;100.00;101398.25;4989101;28;20057;-72
2020/12/26 06:36:05;;;;;;;4.97;2.83;;;;;;;-1.16;100.00;101395.59;5006245;28;20049;-74
2020/12/26 06:38:31;;;;;;;4.87;2.60;;;;;;;-1.21;100.00;101395.41;4988386;28;20097;-74
2020/12/26 06:41:02;;;;;;;4.70;2.80;;;;;;;-1.26;100.00;101393.44;5007718;28;20042;-74
2020/12/26 06:43:51;;;;;;;5.43;2.83;;;;;;;-1.38;100.00;101388.69;5005894;28;20088;-71
2020/12/26 06:46:17;;;;;;;4.37;2.57;;;;;;;-1.49;100.00;101387.38;5005371;28;20088;-75
2020/12/26 06:48:45;;;;;;;5.40;3.33;;;;;;;-1.54;100.00;101387.19;5006919;28;20395;-71
2020/12/26 06:51:26;;;;;;;4.20;2.90;;;;;;;-1.64;100.00;101391.94;5005547;28;20041;-72
2020/12/26 06:53:54;;;;;;;6.90;2.60;;;;;;;-1.68;100.00;101390.03;5004610;28;20045;-73
2020/12/26 06:56:36;;;;;;;3.87;2.50;;;;;;;-1.77;100.00;101393.13;5005807;28;20034;-72
2020/12/26 06:59:12;;;;;;;3.93;2.03;;;;;;;-1.81;100.00;101392.13;5005763;28;20048;-71
2020/12/26 07:01:40;;;;;;;3.00;1.90;;;;;;;-1.81;100.00;101386.97;5008981;28;20604;-72
2020/12/26 07:04:06;;;;;;;3.87;2.43;;;;;;;-1.85;100.00;101384.16;5004688;28;21790;-74
2020/12/26 07:06:37;;;;;;;4.00;2.40;;;;;;;-1.83;100.00;101375.66;5006975;28;20045;-73
2020/12/26 07:09:04;;;;;;;5.60;2.53;;;;;;;-1.85;100.00;101382.50;5007066;28;20046;-73
2020/12/26 07:11:30;;;;;;;5.73;2.70;;;;;;;-1.89;100.00;101387.47;5006032;28;20128;-72
2020/12/26 07:13:57;;;;;;;3.27;2.13;;;;;;;-1.88;100.00;101387.53;4988284;28;20065;-75
2020/12/26 07:16:45;;;;;;;3.27;2.10;;;;;;;-1.87;100.00;101391.88;5004400;28;20446;-74
2020/12/26 07:19:23;;;;;;;4.23;2.30;;;;;;;-1.87;100.00;101394.47;5003766;28;20065;-74
2020/12/26 07:21:51;;;;;;;3.13;2.40;;;;;;;-1.86;100.00;101393.66;5004386;28;20502;-73
2020/12/26 07:24:37;;;;;;;3.83;2.47;;;;;;;-1.85;100.00;101400.63;5002657;28;20057;-76
2020/12/26 07:27:14;;;;;;;4.87;2.97;;;;;;;-1.83;100.00;101408.44;5002600;28;20695;-75
2020/12/26 07:29:53;;;;;;;8.30;4.20;;;;;;;-1.81;100.00;101402.50;5007047;28;20042;-73
2020/12/26 07:32:35;;;;;;;8.20;3.80;;;;;;;-1.83;100.00;101398.97;5015722;28;20053;-75
2020/12/26 07:35:05;;;;;;;5.03;3.37;;;;;;;-1.80;100.00;101403.38;5003215;28;20049;-71
2020/12/26 07:37:32;;;;;;;7.37;4.20;;;;;;;-1.78;100.00;101406.91;5001620;28;20053;-73
2020/12/26 07:39:58;;;;;;;6.57;3.93;;;;;;;-1.78;100.00;101405.22;4987684;28;20062;-72
2020/12/26 07:42:25;;;;;;;7.87;3.90;;;;;;;-1.75;100.00;101405.34;5020499;28;20034;-72
2020/12/26 07:44:51;;;;;;;9.93;4.20;;;;;;;-1.73;100.00;101401.13;5005322;28;20103;-72
2020/12/26 07:47:17;;;;;;;6.80;4.03;;;;;;;-1.72;100.00;101402.88;5001583;28;20058;-77
2020/12/26 07:49:55;;;;;;;6.87;3.23;;;;;;;-1.71;100.00;101398.56;5001615;28;20041;-75
2020/12/26 07:52:21;;;;;;;6.73;4.23;;;;;;;-1.68;100.00;101410.75;5003728;28;20103;-74
2020/12/26 07:54:57;;;;;;;7.87;3.80;;;;;;;-1.70;100.00;101409.00;4987496;28;20049;-72
2020/12/26 07:57:23;;;;;;;8.00;4.77;;;;;;;-1.72;100.00;101415.81;4970709;28;20477;-73
2020/12/26 07:59:49;;;;;;;10.27;4.97;;;;;;;-1.73;100.00;101414.06;4982831;28;20061;-75
2020/12/26 08:02:15;;;;;;;6.93;3.60;;;;;;;-1.73;100.00;101410.59;5001708;28;20300;-75
2020/12/26 08:04:43;;;;;;;7.57;3.60;;;;;;;-1.70;100.00;101414.19;5003968;28;20049;-75
2020/12/26 08:07:10;;;;;;;10.27;5.33;;;;;;;-1.70;100.00;101413.28;5004679;28;20040;-74
2020/12/26 08:09:37;;;;;;;6.97;3.97;;;;;;;-1.72;100.00;101405.47;5001735;28;20041;-72
2020/12/26 08:12:06;;;;;;;10.80;5.30;;;;;;;-1.58;100.00;101421.59;4999688;28;20082;-73
2020/12/26 08:14:33;;;;;;;9.07;5.40;;;;;;;-1.68;100.00;101413.34;5018612;28;20038;-74
2020/12/26 08:16:59;;;;;;;9.77;5.30;;;;;;;-1.69;100.00;101415.06;4971245;28;20454;-72
2020/12/26 08:19:26;;;;;;;10.27;5.67;;;;;;;-1.62;100.00;101417.09;5002612;28;20069;-71
2020/12/26 08:21:57;;;;;;;9.43;4.97;;;;;;;-1.60;100.00;101411.97;5003921;28;20037;-72
2020/12/26 08:24:27;;;;;;;9.37;6.03;;;;;;;-1.70;100.00;101415.88;4986425;28;20042;-72
2020/12/26 08:26:54;;;;;;;8.90;5.17;;;;;;;-1.68;100.00;101410.75;5003371;28;20041;-72
2020/12/26 08:29:26;;;;;;;10.43;5.93;;;;;;;-1.67;100.00;101405.66;5002015;28;20085;-72
2020/12/26 08:31:59;;;;;;;9.60;5.60;;;;;;;-1.74;100.00;101411.41;5001869;28;20419;-72
2020/12/26 08:34:49;;;;;;;10.27;6.80;;;;;;;-1.76;100.00;101418.25;5001958;28;22043;-72
2020/12/26 08:37:23;;;;;;;10.87;6.07;;;;;;;-1.77;100.00;101419.91;4986860;28;20046;-72
2020/12/26 08:39:58;;;;;;;11.33;6.23;;;;;;;-1.83;100.00;101430.06;5002405;28;20084;-72
2020/12/26 08:42:26;;;;;;;14.10;7.10;;;;;;;-1.79;100.00;101423.28;5003256;28;20041;-72
2020/12/26 08:44:52;;;;;;;15.40;7.40;;;;;;;-1.78;100.00;101433.69;5003451;28;20038;-72
2020/12/26 08:47:29;;;;;;;11.13;6.73;;;;;;;-1.77;100.00;101432.00;5004052;28;20042;-72
2020/12/26 08:49:56;;;;;;;13.90;6.90;;;;;;;-1.81;100.00;101441.34;5003452;28;20038;-72
2020/12/26 08:52:26;;;;;;;11.40;7.13;;;;;;;-1.74;100.00;101438.19;5004428;28;20045;-72
2020/12/26 08:55:05;;;;;;;14.67;7.43;;;;;;;-1.71;100.00;101440.03;5003247;28;20463;-70
2020/12/26 08:57:31;;;;;;;13.27;7.13;;;;;;;-1.67;100.00;101436.75;5004415;28;20041;-70
2020/12/26 09:00:20;;;;;;;13.40;7.13;;;;;;;-1.63;100.00;101438.63;4986934;28;20056;-71
2020/12/26 09:02:50;;;;;;;15.73;8.50;;;;;;;-1.67;100.00;101443.66;5003837;28;20068;-71
2020/12/26 09:05:25;;;;;;;16.07;9.47;;;;;;;-1.75;100.00;101449.38;4988561;28;20041;-71
2020/12/26 09:08:06;;;;;;;19.13;9.40;;;;;;;-1.81;100.00;101445.66;5004524;28;20814;-71
2020/12/26 09:10:34;;;;;;;16.17;9.47;;;;;;;-1.78;100.00;101441.47;4971905;28;20077;-71
2020/12/26 09:13:05;;;;;;;19.17;9.93;;;;;;;-1.83;100.00;101453.38;4989093;28;20122;-70
2020/12/26 09:16:03;;;;;;;19.03;10.63;;;;;;;-1.78;100.00;101453.53;4989404;28;20454;-72
2020/12/26 09:18:35;;;;;;;17.30;9.83;;;;;;;-1.80;100.00;101444.81;5001660;28;20041;-71
2020/12/26 09:21:01;;;;;;;18.10;10.67;;;;;;;-1.75;100.00;101445.91;5005109;28;20054;-71
2020/12/26 09:23:34;;;;;;;20.33;10.27;;;;;;;-1.78;100.00;101451.81;4988602;28;20041;-71
2020/12/26 09:26:11;;;;;;;18.17;9.57;;;;;;;-1.75;100.00;101448.50;5003456;28;20069;-71
2020/12/26 09:28:57;;;;;;;23.00;10.53;;;;;;;-1.75;100.00;101449.38;4998731;28;20045;-72
2020/12/26 09:31:25;;;;;;;22.73;9.80;;;;;;;-1.90;100.00;101453.91;5001031;28;20038;-72
2020/12/26 09:33:53;;;;;;;22.13;11.43;;;;;;;-1.88;100.00;101453.97;5004836;28;20034;-72
2020/12/26 09:36:21;;;;;;;21.00;11.17;;;;;;;-1.89;100.00;101447.03;5010334;28;20038;-71
2020/12/26 09:38:48;;;;;;;21.73;11.13;;;;;;;-1.84;100.00;101450.72;5003949;28;20042;-70
2020/12/26 09:41:26;;;;;;;24.13;11.47;;;;;;;-1.81;100.00;101441.34;4985024;28;20112;-70
2020/12/26 09:43:53;;;;;;;22.60;11.90;;;;;;;-1.80;100.00;101442.22;4998942;28;20042;-72
2020/12/26 09:46:21;;;;;;;20.73;11.77;;;;;;;-1.68;100.00;101447.03;4987155;28;20057;-72
2020/12/26 09:48:48;;;;;;;20.33;11.43;;;;;;;-1.72;100.00;101436.56;5001003;28;20100;-71
2020/12/26 09:51:19;;;;;;;22.63;11.67;;;;;;;-1.70;100.00;101434.03;5007333;28;20364;-70
2020/12/26 09:53:49;;;;;;;24.95;11.77;;;;;;;-1.66;100.00;101422.09;4984996;28;20041;-72
2020/12/26 09:56:15;;;;;;;19.03;11.53;;;;;;;-1.64;100.00;101429.09;4986325;28;20111;-72
2020/12/26 09:58:43;;;;;;;21.87;11.67;;;;;;;-1.65;100.00;101429.94;4982319;28;20681;-72
2020/12/26 10:01:14;;;;;;;23.43;12.43;;;;;;;-1.63;100.00;101417.91;5003718;28;20046;-72
2020/12/26 10:03:40;;;;;;;27.83;13.10;;;;;;;-1.59;100.00;101425.00;5004082;28;20069;-71
2020/12/26 10:06:15;;;;;;;26.93;12.20;;;;;;;-1.54;100.00;101420.00;5018168;28;20128;-72
2020/12/26 10:08:45;;;;;;;24.10;11.65;;;;;;;-1.52;100.00;101414.03;5002861;28;20041;-72
2020/12/26 10:11:16;;;;;;;22.97;12.00;;;;;;;-1.50;100.00;101412.41;4998456;28;20565;-71
2020/12/26 10:13:43;;;;;;;23.00;11.60;;;;;;;-1.48;100.00;101417.66;5006815;28;20038;-71
2020/12/26 10:16:10;;;;;;;23.17;12.37;;;;;;;-1.48;100.00;101423.72;5000727;28;20034;-72
2020/12/26 10:18:36;;;;;;;27.03;13.60;;;;;;;-1.48;100.00;101418.53;5003237;28;20072;-72
2020/12/26 10:21:03;;;;;;;30.17;13.53;;;;;;;-1.45;100.00;101416.06;5006419;28;20045;-72
2020/12/26 10:23:29;;;;;;;24.00;11.90;;;;;;;-1.48;100.00;101413.34;5004679;28;20035;-72
2020/12/26 10:26:03;;;;;;;28.20;12.63;;;;;;;-1.39;100.00;101410.25;5003817;28;20045;-71
2020/12/26 10:28:29;;;;;;;24.03;12.80;;;;;;;-1.36;100.00;101407.75;5000499;28;20100;-70
2020/12/26 10:30:55;;;;;;;23.13;11.87;;;;;;;-1.33;100.00;101410.50;4989905;28;20092;-72
2020/12/26 10:33:22;;;;;;;34.13;15.40;;;;;;;-1.25;100.00;101408.22;5003161;28;20474;-69
2020/12/26 10:35:48;;;;;;;33.77;16.80;;;;;;;-1.22;100.00;101411.78;5006755;28;20048;-69
2020/12/26 10:38:14;;;;;;;27.43;13.47;;;;;;;-1.11;100.00;101412.19;4998588;28;20471;-69
2020/12/26 10:40:40;;;;;;;27.43;15.97;;;;;;;-1.13;100.00;101404.38;5006469;28;20092;-70
2020/12/26 10:43:06;;;;;;;26.17;13.57;;;;;;;-1.15;100.00;101405.13;5005486;28;20096;-71
2020/12/26 10:45:32;;;;;;;35.50;16.13;;;;;;;-1.09;100.00;101405.38;4992078;28;20057;-72
2020/12/26 10:47:58;;;;;;;26.17;13.07;;;;;;;-1.07;100.00;101408.03;4996343;28;20038;-78
2020/12/26 10:50:25;;;;;;;34.80;18.07;;;;;;;-1.12;100.00;101413.03;5005332;28;20096;-70
2020/12/26 10:52:51;;;;;;;38.13;22.13;;;;;;;-1.07;100.00;101395.94;4987381;28;20065;-70
2020/12/26 10:55:17;;;;;;;23.63;13.07;;;;;;;-1.00;100.00;101399.66;4990440;28;20103;-72
2020/12/26 10:57:43;;;;;;;24.67;11.43;;;;;;;-0.95;100.00;101390.34;4995570;28;20593;-71
2020/12/26 11:00:11;;;;;;;25.47;11.40;;;;;;;-0.91;100.00;101385.34;5003905;28;20612;-70
2020/12/26 11:02:37;;;;;;;20.80;11.20;;;;;;;-0.94;100.00;101387.78;4987349;28;20445;-74
2020/12/26 11:05:05;;;;;;;23.20;11.20;;;;;;;-0.92;100.00;101385.28;4991014;28;20042;-69
2020/12/26 11:07:31;;;;;;;25.20;11.07;;;;;;;-0.94;100.00;101382.59;4984155;28;20057;-69
2020/12/26 11:09:58;;;;;;;43.07;20.70;;;;;;;-0.85;100.00;101385.53;5006882;28;20065;-72
2020/12/26 11:12:24;;;;;;;82.20;35.87;;;;;;;-0.77;100.00;101384.94;4976860;28;20046;-72
2020/12/26 11:14:53;;;;;;;63.87;29.37;;;;;;;-0.82;100.00;101378.72;4984461;28;20049;-71
2020/12/26 11:17:19;;;;;;;58.20;29.97;;;;;;;-0.89;100.00;101382.78;5001905;28;20065;-69
2020/12/26 11:19:46;;;;;;;30.97;14.60;;;;;;;-0.87;100.00;101376.81;5004904;28;20081;-71
2020/12/26 11:22:12;;;;;;;31.37;15.60;;;;;;;-0.92;100.00;101378.38;5001132;28;20073;-71